createdAt,value
2019-02-06T00:04:42.132Z,7.02
2019-02-06T00:10:38.805Z,6.69
2019-02-06T00:22:23.499Z,6.86
2019-02-06T00:28:35.603Z,6.96
2019-02-06T02:55:43.664Z,6.09
2019-02-06T03:04:32.196Z,5.94
2019-02-06T07:05:56.871Z,6.22
2019-02-06T07:11:56.575Z,6.27
2019-02-06T07:14:26.469Z,6.18
2019-02-06T07:16:57.050Z,6.26
2019-02-06T07:22:51.107Z,6.27
2019-02-06T07:25:27.428Z,6.42
2019-02-06T07:27:54.772Z,6.36
2019-02-06T07:31:06.654Z,6.41
2019-02-06T07:34:26.073Z,6.45
2019-02-06T07:37:04.588Z,6.64
2019-02-06T07:48:53.821Z,6.77
2019-02-06T07:51:51.480Z,6.87
2019-02-06T07:54:19.477Z,7.01
2019-02-06T07:57:00.173Z,7.04
2019-02-06T08:12:21.964Z,7.36
2019-02-06T08:15:12.969Z,7.09
2019-02-06T08:27:30.685Z,7.40
2019-02-06T08:34:00.372Z,7.40
2019-02-06T08:36:37.754Z,7.46
2019-02-06T08:39:13.095Z,7.54
2019-02-06T08:45:07.274Z,7.36
2019-02-06T09:01:17.852Z,8.09
2019-02-06T09:03:49.867Z,8.06
2019-02-06T09:06:18.484Z,7.89
2019-02-06T09:08:59.417Z,7.97
2019-02-06T09:11:22.232Z,8.07
2019-02-06T09:13:55.966Z,8.15
2019-02-06T09:22:07.895Z,8.70
2019-02-06T09:24:38.993Z,8.42
2019-02-06T09:27:10.462Z,8.69
2019-02-06T09:29:40.496Z,9.00
2019-02-06T09:32:47.771Z,9.39
2019-02-06T09:39:11.182Z,9.97
2019-02-06T09:41:51.594Z,10.04
2019-02-06T09:44:56.720Z,10.02
2019-02-06T10:00:47.346Z,10.38
2019-02-06T10:04:27.050Z,10.61
2019-02-06T10:07:33.534Z,10.43
2019-02-06T10:09:57.970Z,10.50
2019-02-06T10:23:34.041Z,9.89
2019-02-06T10:25:39.777Z,9.84
2019-02-06T10:28:12.886Z,10.04
2019-02-06T10:34:28.226Z,10.32
2019-02-06T10:37:01.527Z,10.42
2019-02-06T10:39:50.354Z,10.26
2019-02-06T10:42:24.124Z,9.85
2019-02-06T10:45:09.619Z,10.19
2019-02-06T10:47:45.838Z,9.81
2019-02-06T10:50:20.431Z,9.51
2019-02-06T10:53:07.104Z,10.23
2019-02-06T10:55:35.413Z,10.18
2019-02-06T10:58:38.151Z,10.01
2019-02-06T11:01:12.383Z,10.64
2019-02-06T11:03:53.792Z,10.91
2019-02-06T11:06:25.421Z,10.96
2019-02-06T11:09:03.873Z,11.29
2019-02-06T11:11:36.414Z,11.53
2019-02-06T11:14:16.909Z,11.60
2019-02-06T11:16:51.145Z,11.36
2019-02-06T11:19:23.742Z,10.97
2019-02-06T11:21:59.487Z,11.48
2019-02-06T11:24:31.201Z,11.59
2019-02-06T11:30:09.783Z,11.57
2019-02-06T11:32:40.169Z,12.06
2019-02-06T11:35:27.174Z,12.18
2019-02-06T11:37:56.615Z,12.27
2019-02-06T11:40:29.772Z,12.02
2019-02-06T11:43:38.973Z,11.67
2019-02-06T11:46:15.762Z,11.55
2019-02-06T11:48:48.571Z,11.81
2019-02-06T11:51:26.924Z,11.74
2019-02-06T11:54:02.503Z,11.81
2019-02-06T11:57:05.563Z,11.68
2019-02-06T11:59:41.086Z,11.71
2019-02-06T12:02:20.821Z,11.71
2019-02-06T12:04:58.728Z,11.77
2019-02-06T12:07:42.252Z,11.78
2019-02-06T12:10:26.487Z,11.75
2019-02-06T12:12:57.808Z,11.69
2019-02-06T12:15:38.721Z,11.72
2019-02-06T12:18:50.612Z,11.65
2019-02-06T12:21:40.293Z,11.80
2019-02-06T12:24:35.610Z,11.80
2019-02-06T12:27:21.762Z,11.96
2019-02-06T12:33:23.977Z,11.91
2019-02-06T12:36:15.773Z,12.02
2019-02-06T12:38:53.698Z,11.96
2019-02-06T12:41:32.732Z,11.39
2019-02-06T12:44:28.102Z,11.85
2019-02-06T12:47:03.673Z,11.85
2019-02-06T12:49:32.488Z,11.87
2019-02-06T12:52:26.948Z,12.11
2019-02-06T12:55:19.631Z,12.15
2019-02-06T12:58:09.436Z,12.17
2019-02-06T13:01:01.272Z,12.45
2019-02-06T13:03:55.966Z,12.50
2019-02-06T13:06:28.573Z,12.87
2019-02-06T13:09:03.669Z,13.04
2019-02-06T13:11:35.548Z,13.05
2019-02-06T13:14:20.610Z,12.91
2019-02-06T13:16:57.055Z,12.62
2019-02-06T13:19:27.330Z,12.94
2019-02-06T13:22:00.095Z,13.06
2019-02-06T13:24:52.301Z,13.27
2019-02-06T13:27:30.475Z,13.56
2019-02-06T13:30:08.210Z,13.56
2019-02-06T13:32:43.856Z,13.58
2019-02-06T13:35:19.581Z,13.62
2019-02-06T13:37:57.007Z,13.40
2019-02-06T13:40:29.154Z,13.53
2019-02-06T13:43:18.958Z,13.71
2019-02-06T13:45:57.104Z,13.55
2019-02-06T13:49:01.537Z,13.78
2019-02-06T13:51:44.142Z,13.54
2019-02-06T13:54:19.054Z,13.63
2019-02-06T13:56:49.267Z,13.68
2019-02-06T13:59:21.146Z,13.66
2019-02-06T14:01:57.692Z,14.01
2019-02-06T14:04:31.694Z,14.09
2019-02-06T14:07:11.763Z,14.26
2019-02-06T14:09:41.212Z,14.32
2019-02-06T14:12:17.170Z,14.42
2019-02-06T14:14:52.243Z,14.56
2019-02-06T14:17:31.915Z,14.54
2019-02-06T14:20:03.549Z,14.55
2019-02-06T14:22:32.615Z,14.55
2019-02-06T14:25:19.965Z,14.45
2019-02-06T14:28:24.750Z,14.40
2019-02-06T14:31:35.434Z,14.29
2019-02-06T14:34:24.768Z,14.22
2019-02-06T14:37:16.595Z,14.12
2019-02-06T14:39:51.588Z,14.17
2019-02-06T14:42:49.869Z,13.71
2019-02-06T14:45:32.379Z,13.75
2019-02-06T14:48:09.656Z,13.80
2019-02-06T14:50:49.492Z,13.93
2019-02-06T14:53:48.221Z,13.97
2019-02-06T14:56:40.661Z,13.68
2019-02-06T14:59:23.505Z,13.69
2019-02-06T15:02:09.849Z,13.48
2019-02-06T15:05:00.755Z,13.49
2019-02-06T15:08:12.734Z,13.44
2019-02-06T15:10:57.691Z,13.55
2019-02-06T15:13:58.220Z,13.70
2019-02-06T15:23:32.525Z,13.66
2019-02-06T15:26:25.863Z,13.73
2019-02-06T15:29:19.477Z,13.48
2019-02-06T15:32:23.635Z,13.72
2019-02-06T15:35:12.654Z,13.38
2019-02-06T15:37:50.485Z,13.55
2019-02-06T15:40:57.398Z,13.64
2019-02-06T15:43:42.550Z,13.73
2019-02-06T15:47:12.150Z,13.72
2019-02-06T15:49:51.639Z,13.57
2019-02-06T15:52:47.515Z,13.56
2019-02-06T15:55:40.065Z,13.54
2019-02-06T15:58:27.576Z,13.43
2019-02-06T16:01:18.365Z,13.47
2019-02-06T16:04:45.423Z,13.47
2019-02-06T16:07:42.042Z,13.32
2019-02-06T16:10:20.240Z,13.35
2019-02-06T16:13:18.753Z,13.27
2019-02-06T16:16:33.633Z,13.39
2019-02-06T16:19:26.301Z,13.48
2019-02-06T16:22:17.051Z,13.30
2019-02-06T16:25:00.084Z,13.02
2019-02-06T16:27:47.379Z,12.64
2019-02-06T16:30:37.802Z,12.64
2019-02-06T16:33:39.409Z,12.23
2019-02-06T16:36:17.862Z,12.15
2019-02-06T16:48:56.920Z,12.33
2019-02-06T16:57:29.825Z,12.07
2019-02-06T17:00:42.649Z,11.77
2019-02-06T17:06:19.217Z,11.70
2019-02-06T17:21:07.052Z,11.38
2019-02-06T17:27:11.532Z,11.07
2019-02-06T17:31:39.183Z,11.26
2019-02-06T17:38:06.253Z,11.76
2019-02-06T17:40:39.248Z,11.68
2019-02-06T17:43:46.671Z,11.34
2019-02-06T18:04:49.835Z,10.80
2019-02-06T18:07:26.483Z,10.89
2019-02-06T18:19:05.990Z,11.39
2019-02-06T18:21:59.495Z,11.24
2019-02-06T18:27:14.455Z,11.51
2019-02-06T18:29:45.263Z,11.09
2019-02-06T18:32:47.012Z,11.28
2019-02-06T18:38:17.743Z,11.41
2019-02-06T18:40:56.824Z,10.63
2019-02-06T18:43:42.092Z,10.96
2019-02-06T18:49:48.257Z,10.58
2019-02-06T18:55:43.216Z,11.09
2019-02-06T18:58:27.636Z,11.14
2019-02-06T19:09:16.338Z,10.90
2019-02-06T19:11:48.277Z,10.98
2019-02-06T19:14:36.479Z,10.62
2019-02-06T19:20:22.660Z,10.66
2019-02-06T19:23:05.223Z,10.61
2019-02-06T19:25:35.399Z,10.45
2019-02-06T19:28:18.580Z,10.56
2019-02-06T19:30:51.708Z,10.60
2019-02-06T19:33:31.241Z,8.87
2019-02-06T19:36:09.089Z,10.80
2019-02-06T19:38:46.105Z,10.62
2019-02-06T19:41:24.821Z,10.69
2019-02-06T19:43:55.274Z,10.76
2019-02-06T19:46:43.942Z,10.67
2019-02-06T19:49:19.115Z,10.69
2019-02-06T19:51:58.401Z,10.70
2019-02-06T19:54:38.815Z,10.51
2019-02-06T19:57:03.900Z,10.56
2019-02-06T19:59:49.998Z,10.65
2019-02-06T20:02:24.374Z,10.52
2019-02-06T20:04:56.191Z,10.48
2019-02-06T20:07:26.656Z,10.46
2019-02-06T20:10:02.031Z,10.54
2019-02-06T20:20:17.936Z,10.37
2019-02-06T20:26:10.151Z,10.23
2019-02-06T20:28:47.219Z,10.21
2019-02-06T20:31:46.740Z,10.11
2019-02-06T20:43:53.912Z,9.98
2019-02-06T20:53:00.147Z,9.44
2019-02-06T20:58:50.687Z,9.96
2019-02-06T21:01:40.925Z,10.05
2019-02-06T21:04:21.128Z,10.05
2019-02-06T21:07:09.732Z,10.16
2019-02-06T21:09:57.476Z,9.96
2019-02-06T21:15:47.808Z,9.78
2019-02-06T21:22:01.563Z,9.90
2019-02-06T21:25:01.134Z,9.76
2019-02-06T21:28:02.827Z,9.90
2019-02-06T21:30:42.966Z,9.93
2019-02-06T21:33:44.693Z,9.61
2019-02-06T21:36:14.190Z,9.88
2019-02-06T21:48:24.950Z,9.84
2019-02-06T21:51:15.560Z,9.75
2019-02-06T21:53:50.431Z,9.75
2019-02-06T21:56:21.779Z,9.65
2019-02-06T21:58:55.200Z,9.82
2019-02-06T22:02:22.726Z,9.87
2019-02-06T22:11:40.742Z,9.67
2019-02-06T22:13:59.978Z,9.47
2019-02-06T22:19:34.011Z,9.56
2019-02-06T22:22:09.289Z,9.51
2019-02-06T22:27:58.606Z,9.68
2019-02-06T22:30:58.424Z,9.62
2019-02-06T22:41:53.411Z,9.67
2019-02-06T22:47:54.750Z,9.66
2019-02-06T22:53:52.019Z,9.67
2019-02-06T22:57:18.430Z,9.62
2019-02-06T23:05:49.590Z,9.48
2019-02-06T23:08:22.434Z,9.45
2019-02-06T23:17:20.131Z,9.49
2019-02-06T23:32:36.466Z,9.37
2019-02-06T23:43:46.785Z,9.30
2019-02-06T23:46:46.046Z,9.34
2019-02-06T23:49:14.847Z,9.30
2019-02-06T23:55:26.966Z,9.22
